Flight Track Log - Related Links

Times and Time Zones

All times are in EDT time to prevent confusion due to time zone crossing. See the SKW5524 flight status page for this flight to view local times or setup timezone preferences in your user account.

Time Position Orientation Groundspeed Altitude Reporting Facility
EDT Latitude Longitude Course Direction KTS MPH feet Rate Location/Type
Tue 10:33:15 AM 39.8333 -104.7500 255° West 185 213 7,100  Level Denver TRACON
Tue 10:34:21 AM 39.8333 -104.8333 270° West 229 264 10,000 2,667 Climbing Denver TRACON
Tue 10:35:00 AM 39.7847 -105.0600 255° West  Level FlightAware Approximate
Tue 10:35:12 AM 39.8386 -104.9086 275° West 237 273 12,300  Level Denver Center
Tue 10:36:00 AM 39.7641 -105.1918 259° West  Level FlightAware Approximate
Tue 10:36:14 AM 39.8378 -105.0006 269° West 252 290 15,100  Level Denver Center
Tue 10:37:00 AM 39.7500 -105.3244 270° West  Level FlightAware Approximate
Tue 10:37:17 AM 39.8181 -105.1033 256° West 274 315 17,700  Level Denver Center
Tue 10:38:00 AM 39.7242 -105.4543 255° West  Level FlightAware Approximate
Tue 10:38:19 AM 39.7964 -105.2025 254° West 284 327 19,700  Level Denver Center
Tue 10:39:21 AM 39.7711 -105.3167 254° West 301 346 22,000 1,113 Climbing Denver Center
Tue 10:40:23 AM 39.7461 -105.4406 255° West 357 411 22,000  Level Denver Center
Tue 10:41:25 AM 39.7153 -105.5803 254° West 375 432 22,000  Level Denver Center
Tue 10:42:27 AM 39.6919 -105.7086 257° West 367 422 22,000  Level Denver Center
Tue 10:43:29 AM 39.6797 -105.8456 263° West 348 400 22,000  Level Denver Center
Tue 10:44:31 AM 39.6644 -105.9717 261° West 353 406 22,000  Level Denver Center
Tue 10:45:33 AM 39.6342 -106.0953 252° West 359 413 22,000  Level Denver Center
Tue 10:46:34 AM 39.6117 -106.1886 253° West 357 411 22,000  Level Denver Center
Tue 10:47:37 AM 39.5747 -106.3383 252° West 361 415 22,000 -192 Level Denver Center
Tue 10:48:39 AM 39.5450 -106.4625 253° West 361 415 21,600 -968 Descending Denver Center
Tue 10:49:41 AM 39.5089 -106.6108 253° West 356 410 20,000 -1,452 Descending Denver Center
Tue 10:50:43 AM 39.4842 -106.7106 252° West 314 361 18,600 -1,765 Descending Denver Center
Tue 10:51:57 AM 39.4519 -106.8342 251° West 320 368 16,000 -1,752 Descending Denver Center
Tue 10:53:00 AM 39.4108 -106.9236 239° Southwest 299 344 14,600 -1,968 Descending Denver Center
Tue 10:54:02 AM 39.3458 -106.9281 183° South 218 251 11,900 -2,613 Descending Denver Center

Login

Don't have an account? Register now (free) for customized features, flight alerts, and more!